sensor_id;sensor_type;location;lat;lon;timestamp;pressure;altitude;pressure_sealevel;temperature;humidity
41202;BME280;26936;50.524;8.684;2022-12-08T00:00:51;98862.03;;;3.99;100.00
41202;BME280;26936;50.524;8.684;2022-12-08T00:03:17;98858.03;;;4.00;100.00
41202;BME280;26936;50.524;8.684;2022-12-08T00:05:46;98856.03;;;4.00;100.00
41202;BME280;26936;50.524;8.684;2022-12-08T00:08:31;98852.34;;;4.07;100.00
41202;BME280;26936;50.524;8.684;2022-12-08T00:11:15;98851.56;;;4.06;100.00
41202;BME280;26936;50.524;8.684;2022-12-08T00:13:40;98854.72;;;4.08;100.00
41202;BME280;26936;50.524;8.684;2022-12-08T00:16:06;98847.25;;;4.02;100.00
41202;BME280;26936;50.524;8.684;2022-12-08T00:18:32;98849.63;;;4.03;100.00
41202;BME280;26936;50.524;8.684;2022-12-08T00:20:57;98848.53;;;3.97;100.00
41202;BME280;26936;50.524;8.684;2022-12-08T00:23:23;98842.63;;;3.92;100.00
41202;BME280;26936;50.524;8.684;2022-12-08T00:25:49;98846.13;;;3.99;100.00
41202;BME280;26936;50.524;8.684;2022-12-08T00:28:14;98833.81;;;3.97;100.00
41202;BME280;26936;50.524;8.684;2022-12-08T00:30:40;98832.63;;;3.98;100.00
41202;BME280;26936;50.524;8.684;2022-12-08T00:33:06;98827.44;;;3.96;100.00
41202;BME280;26936;50.524;8.684;2022-12-08T00:35:31;98819.88;;;3.97;100.00
41202;BME280;26936;50.524;8.684;2022-12-08T00:37:56;98826.19;;;4.01;100.00
41202;BME280;26936;50.524;8.684;2022-12-08T00:40:21;98822.66;;;3.97;100.00
41202;BME280;26936;50.524;8.684;2022-12-08T00:42:47;98825.81;;;3.99;100.00
41202;BME280;26936;50.524;8.684;2022-12-08T00:45:12;98830.31;;;3.93;100.00
41202;BME280;26936;50.524;8.684;2022-12-08T00:47:37;98822.00;;;3.89;100.00
41202;BME280;26936;50.524;8.684;2022-12-08T00:50:03;98818.72;;;3.94;100.00
41202;BME280;26936;50.524;8.684;2022-12-08T00:52:29;98824.03;;;3.85;100.00
41202;BME280;26936;50.524;8.684;2022-12-08T00:54:54;98810.09;;;3.85;100.00
41202;BME280;26936;50.524;8.684;2022-12-08T00:57:19;98810.91;;;3.86;100.00
41202;BME280;26936;50.524;8.684;2022-12-08T00:59:44;98813.16;;;3.94;100.00
41202;BME280;26936;50.524;8.684;2022-12-08T01:02:10;98807.13;;;3.99;100.00
41202;BME280;26936;50.524;8.684;2022-12-08T01:04:35;98816.00;;;3.91;100.00
41202;BME280;26936;50.524;8.684;2022-12-08T01:07:00;98807.69;;;3.87;100.00
41202;BME280;26936;50.524;8.684;2022-12-08T01:09:25;98807.94;;;3.96;100.00
41202;BME280;26936;50.524;8.684;2022-12-08T01:11:51;98809.09;;;3.99;100.00
41202;BME280;26936;50.524;8.684;2022-12-08T01:14:16;98810.38;;;3.94;100.00
41202;BME280;26936;50.524;8.684;2022-12-08T01:16:42;98811.03;;;4.02;100.00
41202;BME280;26936;50.524;8.684;2022-12-08T01:19:10;98810.38;;;3.94;100.00
41202;BME280;26936;50.524;8.684;2022-12-08T01:21:36;98804.47;;;3.89;100.00
41202;BME280;26936;50.524;8.684;2022-12-08T01:24:01;98796.88;;;3.93;100.00
41202;BME280;26936;50.524;8.684;2022-12-08T01:26:27;98808.44;;;3.91;100.00
41202;BME280;26936;50.524;8.684;2022-12-08T01:28:52;98803.59;;;3.95;100.00
41202;BME280;26936;50.524;8.684;2022-12-08T01:31:19;98798.47;;;3.90;100.00
41202;BME280;26936;50.524;8.684;2022-12-08T01:33:45;98799.34;;;3.87;100.00
41202;BME280;26936;50.524;8.684;2022-12-08T01:36:29;98799.34;;;3.87;100.00
41202;BME280;26936;50.524;8.684;2022-12-08T01:39:00;98796.56;;;3.87;100.00
41202;BME280;26936;50.524;8.684;2022-12-08T01:41:31;98802.44;;;3.93;100.00
41202;BME280;26936;50.524;8.684;2022-12-08T01:44:02;98800.13;;;3.88;100.00
41202;BME280;26936;50.524;8.684;2022-12-08T01:46:30;98805.75;;;3.84;100.00
41202;BME280;26936;50.524;8.684;2022-12-08T01:49:06;98804.47;;;3.89;100.00
41202;BME280;26936;50.524;8.684;2022-12-08T01:51:37;98803.63;;;3.92;100.00
41202;BME280;26936;50.524;8.684;2022-12-08T01:54:05;98803.34;;;3.86;100.00
41202;BME280;26936;50.524;8.684;2022-12-08T01:59:03;98798.97;;;3.85;100.00
41202;BME280;26936;50.524;8.684;2022-12-08T02:01:30;98796.59;;;3.84;100.00
41202;BME280;26936;50.524;8.684;2022-12-08T02:03:57;98806.66;;;3.78;100.00
41202;BME280;26936;50.524;8.684;2022-12-08T02:06:25;98793.91;;;3.77;100.00
41202;BME280;26936;50.524;8.684;2022-12-08T02:08:52;98791.56;;;3.75;100.00
41202;BME280;26936;50.524;8.684;2022-12-08T02:11:19;98796.66;;;3.80;100.00
41202;BME280;26936;50.524;8.684;2022-12-08T02:13:46;98793.53;;;3.78;100.00
41202;BME280;26936;50.524;8.684;2022-12-08T02:25:13;98782.44;;;3.75;100.00
41202;BME280;26936;50.524;8.684;2022-12-08T02:27:36;98785.94;;;3.79;100.00
41202;BME280;26936;50.524;8.684;2022-12-08T02:30:21;98776.44;;;3.76;100.00
41202;BME280;26936;50.524;8.684;2022-12-08T02:41:18;98766.88;;;3.77;100.00
41202;BME280;26936;50.524;8.684;2022-12-08T02:43:54;98769.66;;;3.77;100.00
41202;BME280;26936;50.524;8.684;2022-12-08T02:46:35;98776.88;;;3.75;100.00
41202;BME280;26936;50.524;8.684;2022-12-08T02:49:02;98764.09;;;3.77;100.00
41202;BME280;26936;50.524;8.684;2022-12-08T02:51:29;98771.09;;;3.85;100.00
41202;BME280;26936;50.524;8.684;2022-12-08T02:53:54;98764.41;;;3.83;100.00
41202;BME280;26936;50.524;8.684;2022-12-08T02:59:26;98754.53;;;3.78;100.00
41202;BME280;26936;50.524;8.684;2022-12-08T03:04:54;98753.75;;;3.78;100.00
41202;BME280;26936;50.524;8.684;2022-12-08T03:07:33;98754.22;;;3.73;100.00
41202;BME280;26936;50.524;8.684;2022-12-08T03:10:15;98753.91;;;3.67;100.00
41202;BME280;26936;50.524;8.684;2022-12-08T03:12:47;98746.28;;;3.71;100.00
41202;BME280;26936;50.524;8.684;2022-12-08T03:15:18;98739.50;;;3.72;100.00
41202;BME280;26936;50.524;8.684;2022-12-08T03:17:56;98737.81;;;3.78;100.00
41202;BME280;26936;50.524;8.684;2022-12-08T03:20:23;98732.34;;;3.71;100.00
41202;BME280;26936;50.524;8.684;2022-12-08T03:22:51;98732.34;;;3.71;100.00
41202;BME280;26936;50.524;8.684;2022-12-08T03:25:23;98724.50;;;3.66;100.00
41202;BME280;26936;50.524;8.684;2022-12-08T03:27:49;98723.25;;;3.67;100.00
41202;BME280;26936;50.524;8.684;2022-12-08T03:30:15;98720.47;;;3.67;100.00
41202;BME280;26936;50.524;8.684;2022-12-08T03:32:50;98716.44;;;3.72;100.00
41202;BME280;26936;50.524;8.684;2022-12-08T03:35:19;98716.50;;;3.68;100.00
41202;BME280;26936;50.524;8.684;2022-12-08T03:37:46;98713.25;;;3.73;100.00
41202;BME280;26936;50.524;8.684;2022-12-08T03:40:17;98710.38;;;3.77;100.00
41202;BME280;26936;50.524;8.684;2022-12-08T03:42:42;98710.03;;;3.75;100.00
41202;BME280;26936;50.524;8.684;2022-12-08T03:45:07;98702.16;;;3.70;100.00
41202;BME280;26936;50.524;8.684;2022-12-08T03:47:33;98708.16;;;3.68;100.00
41202;BME280;26936;50.524;8.684;2022-12-08T03:49:58;98700.50;;;3.72;100.00
41202;BME280;26936;50.524;8.684;2022-12-08T03:52:23;98700.22;;;3.67;100.00
41202;BME280;26936;50.524;8.684;2022-12-08T03:54:49;98697.28;;;3.74;100.00
41202;BME280;26936;50.524;8.684;2022-12-08T03:57:14;98693.38;;;3.71;100.00
41202;BME280;26936;50.524;8.684;2022-12-08T03:59:39;98694.50;;;3.74;100.00
41202;BME280;26936;50.524;8.684;2022-12-08T04:02:05;98694.88;;;3.76;100.00
41202;BME280;26936;50.524;8.684;2022-12-08T04:04:30;98687.31;;;3.76;100.00
41202;BME280;26936;50.524;8.684;2022-12-08T04:06:55;98682.03;;;3.82;100.00
41202;BME280;26936;50.524;8.684;2022-12-08T04:09:21;98690.47;;;3.78;100.00
41202;BME280;26936;50.524;8.684;2022-12-08T04:11:46;98689.75;;;3.74;100.00
41202;BME280;26936;50.524;8.684;2022-12-08T04:14:11;98683.75;;;3.76;100.00
41202;BME280;26936;50.524;8.684;2022-12-08T04:16:36;98683.75;;;3.76;100.00
41202;BME280;26936;50.524;8.684;2022-12-08T04:19:02;98684.53;;;3.76;100.00
41202;BME280;26936;50.524;8.684;2022-12-08T04:21:28;98688.47;;;3.79;100.00
41202;BME280;26936;50.524;8.684;2022-12-08T04:23:53;98674.53;;;3.79;100.00
41202;BME280;26936;50.524;8.684;2022-12-08T04:26:19;98678.97;;;3.76;100.00
41202;BME280;26936;50.524;8.684;2022-12-08T04:28:44;98670.19;;;3.78;100.00
41202;BME280;26936;50.524;8.684;2022-12-08T04:31:09;98672.19;;;3.77;100.00
41202;BME280;26936;50.524;8.684;2022-12-08T04:33:35;98671.38;;;3.77;100.00
41202;BME280;26936;50.524;8.684;2022-12-08T04:36:02;98667.53;;;3.71;100.00
41202;BME280;26936;50.524;8.684;2022-12-08T04:38:27;98666.59;;;3.77;100.00
41202;BME280;26936;50.524;8.684;2022-12-08T04:40:53;98665.03;;;3.76;100.00
41202;BME280;26936;50.524;8.684;2022-12-08T04:43:18;98660.50;;;3.86;100.00
41202;BME280;26936;50.524;8.684;2022-12-08T04:45:43;98658.25;;;3.77;100.00
41202;BME280;26936;50.524;8.684;2022-12-08T04:48:09;98657.13;;;3.75;100.00
41202;BME280;26936;50.524;8.684;2022-12-08T04:50:38;98659.41;;;3.80;100.00
41202;BME280;26936;50.524;8.684;2022-12-08T04:53:04;98652.69;;;3.77;100.00
41202;BME280;26936;50.524;8.684;2022-12-08T04:55:29;98653.22;;;3.92;100.00
41202;BME280;26936;50.524;8.684;2022-12-08T04:57:55;98650.22;;;3.83;100.00
41202;BME280;26936;50.524;8.684;2022-12-08T05:00:20;98650.22;;;3.83;100.00
41202;BME280;26936;50.524;8.684;2022-12-08T05:02:45;98647.00;;;3.84;100.00
41202;BME280;26936;50.524;8.684;2022-12-08T05:05:11;98651.66;;;3.91;100.00
41202;BME280;26936;50.524;8.684;2022-12-08T05:07:36;98653.41;;;3.81;100.00
41202;BME280;26936;50.524;8.684;2022-12-08T05:10:02;98649.34;;;3.86;100.00
41202;BME280;26936;50.524;8.684;2022-12-08T05:12:28;98641.53;;;3.77;100.00
41202;BME280;26936;50.524;8.684;2022-12-08T05:14:53;98641.91;;;3.79;100.00
41202;BME280;26936;50.524;8.684;2022-12-08T05:17:18;98645.81;;;3.82;100.00
41202;BME280;26936;50.524;8.684;2022-12-08T05:19:44;98650.63;;;3.81;100.00
41202;BME280;26936;50.524;8.684;2022-12-08T05:22:09;98646.84;;;3.72;100.00
41202;BME280;26936;50.524;8.684;2022-12-08T05:24:34;98647.66;;;3.69;100.00
41202;BME280;26936;50.524;8.684;2022-12-08T05:27:00;98641.16;;;3.75;100.00
41202;BME280;26936;50.524;8.684;2022-12-08T05:29:25;98646.31;;;3.77;100.00
41202;BME280;26936;50.524;8.684;2022-12-08T05:31:50;98640.47;;;3.71;100.00
41202;BME280;26936;50.524;8.684;2022-12-08T05:34:15;98644.63;;;3.83;100.00
41202;BME280;26936;50.524;8.684;2022-12-08T05:36:41;98638.81;;;3.74;100.00
41202;BME280;26936;50.524;8.684;2022-12-08T05:39:06;98643.47;;;3.80;100.00
41202;BME280;26936;50.524;8.684;2022-12-08T05:41:31;98639.19;;;3.76;100.00
41202;BME280;26936;50.524;8.684;2022-12-08T05:43:57;98626.91;;;3.73;100.00
41202;BME280;26936;50.524;8.684;2022-12-08T05:46:22;98624.78;;;3.81;100.00
41202;BME280;26936;50.524;8.684;2022-12-08T05:48:47;98620.00;;;3.81;100.00
41202;BME280;26936;50.524;8.684;2022-12-08T05:51:23;98630.78;;;3.79;100.00
41202;BME280;26936;50.524;8.684;2022-12-08T05:53:49;98621.06;;;3.87;100.00
41202;BME280;26936;50.524;8.684;2022-12-08T05:56:15;98623.53;;;3.82;100.00
41202;BME280;26936;50.524;8.684;2022-12-08T05:58:41;98626.44;;;3.78;100.00
41202;BME280;26936;50.524;8.684;2022-12-08T06:01:06;98625.25;;;3.76;100.00
41202;BME280;26936;50.524;8.684;2022-12-08T06:03:32;98625.69;;;3.74;100.00
41202;BME280;26936;50.524;8.684;2022-12-08T06:05:57;98621.78;;;3.72;100.00
41202;BME280;26936;50.524;8.684;2022-12-08T06:08:23;98620.06;;;3.78;100.00
41202;BME280;26936;50.524;8.684;2022-12-08T06:10:48;98622.03;;;3.77;100.00
41202;BME280;26936;50.524;8.684;2022-12-08T06:13:14;98620.50;;;3.76;100.00
41202;BME280;26936;50.524;8.684;2022-12-08T06:15:40;98624.22;;;3.89;100.00
41202;BME280;26936;50.524;8.684;2022-12-08T06:18:06;98621.06;;;3.87;100.00
41202;BME280;26936;50.524;8.684;2022-12-08T06:20:32;98615.13;;;3.85;100.00
41202;BME280;26936;50.524;8.684;2022-12-08T06:22:57;98610.06;;;3.80;100.00
41202;BME280;26936;50.524;8.684;2022-12-08T06:25:23;98611.50;;;3.88;100.00
41202;BME280;26936;50.524;8.684;2022-12-08T06:27:49;98609.06;;;3.90;100.00
41202;BME280;26936;50.524;8.684;2022-12-08T06:30:15;98609.19;;;3.83;100.00
41202;BME280;26936;50.524;8.684;2022-12-08T06:32:41;98601.69;;;3.80;100.00
41202;BME280;26936;50.524;8.684;2022-12-08T06:35:06;98605.22;;;3.84;100.00
41202;BME280;26936;50.524;8.684;2022-12-08T06:37:32;98610.56;;;3.95;100.00
41202;BME280;26936;50.524;8.684;2022-12-08T06:39:57;98614.38;;;3.85;100.00
41202;BME280;26936;50.524;8.684;2022-12-08T06:42:23;98608.28;;;3.90;100.00
41202;BME280;26936;50.524;8.684;2022-12-08T06:45:07;98612.78;;;3.84;100.00
41202;BME280;26936;50.524;8.684;2022-12-08T06:47:33;98612.13;;;3.76;100.00
41202;BME280;26936;50.524;8.684;2022-12-08T06:49:58;98620.00;;;3.81;100.00
41202;BME280;26936;50.524;8.684;2022-12-08T06:52:23;98610.13;;;3.77;100.00
41202;BME280;26936;50.524;8.684;2022-12-08T06:54:48;98610.84;;;3.81;100.00
41202;BME280;26936;50.524;8.684;2022-12-08T06:57:14;98621.56;;;3.82;100.00
41202;BME280;26936;50.524;8.684;2022-12-08T06:59:39;98612.41;;;3.82;100.00
41202;BME280;26936;50.524;8.684;2022-12-08T07:02:04;98613.75;;;3.74;100.00
41202;BME280;26936;50.524;8.684;2022-12-08T07:04:30;98610.47;;;3.79;100.00
41202;BME280;26936;50.524;8.684;2022-12-08T07:06:55;98607.31;;;3.77;100.00
41202;BME280;26936;50.524;8.684;2022-12-08T07:09:20;98611.28;;;3.79;100.00
41202;BME280;26936;50.524;8.684;2022-12-08T07:11:45;98613.13;;;3.86;100.00
41202;BME280;26936;50.524;8.684;2022-12-08T07:14:11;98613.78;;;3.93;100.00
41202;BME280;26936;50.524;8.684;2022-12-08T07:16:37;98615.81;;;3.93;100.00
41202;BME280;26936;50.524;8.684;2022-12-08T07:19:03;98623.06;;;3.87;100.00
41202;BME280;26936;50.524;8.684;2022-12-08T07:21:29;98619.00;;;3.91;100.00
41202;BME280;26936;50.524;8.684;2022-12-08T07:23:54;98624.16;;;3.93;100.00
41202;BME280;26936;50.524;8.684;2022-12-08T07:26:19;98627.78;;;3.90;100.00
41202;BME280;26936;50.524;8.684;2022-12-08T07:28:45;98624.50;;;3.95;100.00
41202;BME280;26936;50.524;8.684;2022-12-08T07:31:19;98623.84;;;3.87;100.00
41202;BME280;26936;50.524;8.684;2022-12-08T07:33:46;98619.72;;;3.95;100.00
41202;BME280;26936;50.524;8.684;2022-12-08T07:36:12;98621.44;;;3.89;100.00
41202;BME280;26936;50.524;8.684;2022-12-08T07:38:37;98618.50;;;3.96;100.00
41202;BME280;26936;50.524;8.684;2022-12-08T07:41:03;98616.63;;;3.90;100.00
41202;BME280;26936;50.524;8.684;2022-12-08T07:43:28;98623.78;;;3.91;100.00
41202;BME280;26936;50.524;8.684;2022-12-08T07:45:53;98618.50;;;3.96;100.00
41202;BME280;26936;50.524;8.684;2022-12-08T07:48:19;98615.31;;;3.98;100.00
41202;BME280;26936;50.524;8.684;2022-12-08T07:50:44;98621.38;;;3.93;100.00
41202;BME280;26936;50.524;8.684;2022-12-08T07:53:09;98621.28;;;3.96;100.00
41202;BME280;26936;50.524;8.684;2022-12-08T07:55:40;98611.38;;;3.95;100.00
41202;BME280;26936;50.524;8.684;2022-12-08T07:58:05;98612.84;;;4.00;100.00
41202;BME280;26936;50.524;8.684;2022-12-08T08:00:31;98615.03;;;4.12;100.00
41202;BME280;26936;50.524;8.684;2022-12-08T08:02:56;98614.28;;;4.08;100.00
41202;BME280;26936;50.524;8.684;2022-12-08T08:05:22;98615.44;;;4.10;100.00
41202;BME280;26936;50.524;8.684;2022-12-08T08:07:47;98615.88;;;4.09;100.00
41202;BME280;26936;50.524;8.684;2022-12-08T08:10:12;98618.59;;;4.12;100.00
41202;BME280;26936;50.524;8.684;2022-12-08T08:12:38;98616.75;;;4.06;100.00
41202;BME280;26936;50.524;8.684;2022-12-08T08:15:05;98618.31;;;4.07;100.00
41202;BME280;26936;50.524;8.684;2022-12-08T08:17:35;98612.44;;;4.01;100.00
41202;BME280;26936;50.524;8.684;2022-12-08T08:20:03;98611.66;;;4.21;100.00
41202;BME280;26936;50.524;8.684;2022-12-08T08:22:31;98614.28;;;4.08;100.00
41202;BME280;26936;50.524;8.684;2022-12-08T08:24:56;98614.66;;;4.10;100.00
41202;BME280;26936;50.524;8.684;2022-12-08T08:27:21;98620.66;;;4.08;100.00
41202;BME280;26936;50.524;8.684;2022-12-08T08:29:47;98608.94;;;4.17;100.00
41202;BME280;26936;50.524;8.684;2022-12-08T08:32:12;98617.56;;;4.22;100.00
41202;BME280;26936;50.524;8.684;2022-12-08T08:34:37;98619.31;;;4.16;100.00
41202;BME280;26936;50.524;8.684;2022-12-08T08:37:03;98616.88;;;4.18;100.00
41202;BME280;26936;50.524;8.684;2022-12-08T08:39:28;98614.22;;;4.31;100.00
41202;BME280;26936;50.524;8.684;2022-12-08T08:41:55;98611.59;;;4.24;100.00
41202;BME280;26936;50.524;8.684;2022-12-08T08:44:21;98609.66;;;4.21;100.00
41202;BME280;26936;50.524;8.684;2022-12-08T08:46:46;98617.19;;;4.24;100.00
41202;BME280;26936;50.524;8.684;2022-12-08T08:49:11;98616.00;;;4.22;100.00
41202;BME280;26936;50.524;8.684;2022-12-08T08:51:36;98617.44;;;4.30;100.00
41202;BME280;26936;50.524;8.684;2022-12-08T08:54:02;98609.50;;;4.28;100.00
41202;BME280;26936;50.524;8.684;2022-12-08T08:56:27;98612.66;;;4.30;100.00
41202;BME280;26936;50.524;8.684;2022-12-08T08:58:52;98613.53;;;4.27;100.00
41202;BME280;26936;50.524;8.684;2022-12-08T09:01:21;98617.81;;;4.32;100.00
41202;BME280;26936;50.524;8.684;2022-12-08T09:03:47;98616.88;;;4.38;100.00
41202;BME280;26936;50.524;8.684;2022-12-08T09:06:13;98614.16;;;4.35;100.00
41202;BME280;26936;50.524;8.684;2022-12-08T09:08:40;98610.56;;;4.34;100.00
41202;BME280;26936;50.524;8.684;2022-12-08T09:11:06;98616.94;;;4.35;100.00
41202;BME280;26936;50.524;8.684;2022-12-08T09:13:31;98619.44;;;4.29;100.00
41202;BME280;26936;50.524;8.684;2022-12-08T09:15:59;98615.03;;;4.32;100.00
41202;BME280;26936;50.524;8.684;2022-12-08T09:18:25;98607.34;;;4.36;100.00
41202;BME280;26936;50.524;8.684;2022-12-08T09:20:50;98612.44;;;4.41;100.00
41202;BME280;26936;50.524;8.684;2022-12-08T09:23:15;98611.22;;;4.42;100.00
41202;BME280;26936;50.524;8.684;2022-12-08T09:25:43;98614.59;;;4.33;100.00
41202;BME280;26936;50.524;8.684;2022-12-08T09:28:09;98610.50;;;4.38;100.00
41202;BME280;26936;50.524;8.684;2022-12-08T09:30:34;98615.94;;;4.45;100.00
41202;BME280;26936;50.524;8.684;2022-12-08T09:33:00;98611.66;;;4.40;100.00
41202;BME280;26936;50.524;8.684;2022-12-08T09:35:25;98611.91;;;4.46;100.00
41202;BME280;26936;50.524;8.684;2022-12-08T09:37:50;98613.44;;;4.50;100.00
41202;BME280;26936;50.524;8.684;2022-12-08T09:40:18;98613.34;;;4.54;100.00
41202;BME280;26936;50.524;8.684;2022-12-08T09:43:09;98607.88;;;4.50;100.00
41202;BME280;26936;50.524;8.684;2022-12-08T09:45:40;98610.47;;;4.57;100.00
41202;BME280;26936;50.524;8.684;2022-12-08T09:48:11;98604.47;;;4.59;100.00
41202;BME280;26936;50.524;8.684;2022-12-08T09:53:08;98610.56;;;4.54;100.00
41202;BME280;26936;50.524;8.684;2022-12-08T09:58:26;98607.34;;;4.55;100.00
41202;BME280;26936;50.524;8.684;2022-12-08T10:00:53;98609.84;;;4.50;100.00
41202;BME280;26936;50.524;8.684;2022-12-08T10:03:20;98600.63;;;4.53;100.00
41202;BME280;26936;50.524;8.684;2022-12-08T10:11:37;98595.97;;;4.66;100.00
41202;BME280;26936;50.524;8.684;2022-12-08T10:16:55;98592.13;;;4.60;100.00
41202;BME280;26936;50.524;8.684;2022-12-08T10:19:26;98588.59;;;4.56;100.00
41202;BME280;26936;50.524;8.684;2022-12-08T10:21:52;98587.31;;;4.60;100.00
41202;BME280;26936;50.524;8.684;2022-12-08T10:24:30;98580.16;;;4.59;100.00
41202;BME280;26936;50.524;8.684;2022-12-08T10:26:56;98581.66;;;4.64;100.00
41202;BME280;26936;50.524;8.684;2022-12-08T10:29:22;98578.94;;;4.60;100.00
41202;BME280;26936;50.524;8.684;2022-12-08T10:31:47;98578.94;;;4.60;100.00
41202;BME280;26936;50.524;8.684;2022-12-08T10:34:21;98570.06;;;4.65;99.26
41202;BME280;26936;50.524;8.684;2022-12-08T10:36:57;98570.25;;;4.58;100.00
41202;BME280;26936;50.524;8.684;2022-12-08T10:39:29;98570.75;;;4.53;100.00
41202;BME280;26936;50.524;8.684;2022-12-08T10:42:06;98571.50;;;4.54;100.00
41202;BME280;26936;50.524;8.684;2022-12-08T10:44:32;98581.03;;;4.56;100.00
41202;BME280;26936;50.524;8.684;2022-12-08T10:47:10;98568.94;;;4.63;100.00
41202;BME280;26936;50.524;8.684;2022-12-08T10:49:35;98573.22;;;4.67;100.00
41202;BME280;26936;50.524;8.684;2022-12-08T10:52:08;98564.31;;;4.56;100.00
41202;BME280;26936;50.524;8.684;2022-12-08T10:54:36;98556.72;;;4.57;99.56
41202;BME280;26936;50.524;8.684;2022-12-08T10:57:02;98555.94;;;4.56;100.00
41202;BME280;26936;50.524;8.684;2022-12-08T10:59:28;98560.41;;;4.70;99.91
41202;BME280;26936;50.524;8.684;2022-12-08T11:01:54;98553.00;;;4.63;100.00
41202;BME280;26936;50.524;8.684;2022-12-08T11:04:22;98546.28;;;4.61;100.00
41202;BME280;26936;50.524;8.684;2022-12-08T11:06:49;98553.94;;;4.57;100.00
41202;BME280;26936;50.524;8.684;2022-12-08T11:11:57;98553.69;;;4.67;99.88
41202;BME280;26936;50.524;8.684;2022-12-08T11:14:28;98546.81;;;4.72;100.00
41202;BME280;26936;50.524;8.684;2022-12-08T11:17:01;98547.31;;;4.67;100.00
41202;BME280;26936;50.524;8.684;2022-12-08T11:19:27;98541.16;;;4.75;100.00
41202;BME280;26936;50.524;8.684;2022-12-08T11:21:52;98543.13;;;4.75;99.18
41202;BME280;26936;50.524;8.684;2022-12-08T11:24:25;98537.56;;;4.75;99.66
41202;BME280;26936;50.524;8.684;2022-12-08T11:27:01;98534.00;;;4.74;99.77
41202;BME280;26936;50.524;8.684;2022-12-08T11:29:29;98531.13;;;4.78;100.00
41202;BME280;26936;50.524;8.684;2022-12-08T11:31:59;98536.28;;;4.79;100.00
41202;BME280;26936;50.524;8.684;2022-12-08T11:37:03;98534.25;;;4.80;98.51
41202;BME280;26936;50.524;8.684;2022-12-08T11:39:31;98539.41;;;4.81;98.90
41202;BME280;26936;50.524;8.684;2022-12-08T11:42:01;98532.34;;;4.93;97.95
41202;BME280;26936;50.524;8.684;2022-12-08T11:44:45;98536.53;;;4.85;98.19
41202;BME280;26936;50.524;8.684;2022-12-08T11:47:19;98536.09;;;4.86;98.11
41202;BME280;26936;50.524;8.684;2022-12-08T11:49:46;98535.66;;;4.88;98.14
41202;BME280;26936;50.524;8.684;2022-12-08T11:52:21;98528.88;;;4.89;98.79
41202;BME280;26936;50.524;8.684;2022-12-08T11:54:54;98528.00;;;4.92;97.57
41202;BME280;26936;50.524;8.684;2022-12-08T11:57:23;98525.03;;;4.83;98.72
41202;BME280;26936;50.524;8.684;2022-12-08T11:59:53;98523.09;;;4.80;99.41
41202;BME280;26936;50.524;8.684;2022-12-08T12:02:31;98524.09;;;4.89;99.83
41202;BME280;26936;50.524;8.684;2022-12-08T12:07:57;98521.09;;;4.80;98.18
41202;BME280;26936;50.524;8.684;2022-12-08T12:10:43;98512.66;;;4.84;96.83
41202;BME280;26936;50.524;8.684;2022-12-08T12:13:24;98509.34;;;4.89;96.99
41202;BME280;26936;50.524;8.684;2022-12-08T12:16:07;98507.69;;;4.91;97.92
41202;BME280;26936;50.524;8.684;2022-12-08T12:18:44;98501.50;;;5.00;97.83
41202;BME280;26936;50.524;8.684;2022-12-08T12:23:53;98508.97;;;5.03;94.44
41202;BME280;26936;50.524;8.684;2022-12-08T12:26:21;98499.94;;;4.99;94.43
41202;BME280;26936;50.524;8.684;2022-12-08T12:28:52;98498.34;;;4.98;94.48
41202;BME280;26936;50.524;8.684;2022-12-08T12:31:25;98494.88;;;4.94;94.64
41202;BME280;26936;50.524;8.684;2022-12-08T12:34:02;98501.66;;;4.93;94.96
41202;BME280;26936;50.524;8.684;2022-12-08T12:36:30;98499.94;;;4.99;94.42
41202;BME280;26936;50.524;8.684;2022-12-08T12:38:57;98496.34;;;4.98;94.33
41202;BME280;26936;50.524;8.684;2022-12-08T12:41:47;98490.94;;;4.91;95.82
41202;BME280;26936;50.524;8.684;2022-12-08T12:59:46;98478.75;;;4.85;95.71
41202;BME280;26936;50.524;8.684;2022-12-08T13:02:17;98479.25;;;4.96;94.83
41202;BME280;26936;50.524;8.684;2022-12-08T13:04:52;98477.44;;;4.90;96.00
41202;BME280;26936;50.524;8.684;2022-12-08T13:07:24;98480.22;;;4.90;96.56
41202;BME280;26936;50.524;8.684;2022-12-08T13:10:02;98483.34;;;4.92;96.72
41202;BME280;26936;50.524;8.684;2022-12-08T13:12:28;98484.31;;;4.85;95.65
41202;BME280;26936;50.524;8.684;2022-12-08T13:15:00;98481.81;;;4.91;95.55
41202;BME280;26936;50.524;8.684;2022-12-08T13:17:29;98485.72;;;4.93;96.06
41202;BME280;26936;50.524;8.684;2022-12-08T13:19:58;98481.09;;;4.87;97.39
41202;BME280;26936;50.524;8.684;2022-12-08T13:22:56;98490.50;;;4.93;96.69
41202;BME280;26936;50.524;8.684;2022-12-08T13:28:23;98476.13;;;4.78;97.11
41202;BME280;26936;50.524;8.684;2022-12-08T13:30:53;98486.16;;;4.76;97.17
41202;BME280;26936;50.524;8.684;2022-12-08T13:33:38;98492.25;;;4.71;97.51
41202;BME280;26936;50.524;8.684;2022-12-08T13:38:44;98482.50;;;4.63;98.09
41202;BME280;26936;50.524;8.684;2022-12-08T13:41:23;98487.56;;;4.68;97.54
41202;BME280;26936;50.524;8.684;2022-12-08T13:43:54;98475.53;;;4.71;98.04
41202;BME280;26936;50.524;8.684;2022-12-08T13:46:32;98477.06;;;4.72;98.18
41202;BME280;26936;50.524;8.684;2022-12-08T13:48:59;98471.84;;;4.74;98.41
41202;BME280;26936;50.524;8.684;2022-12-08T13:51:28;98481.00;;;4.74;99.12
41202;BME280;26936;50.524;8.684;2022-12-08T13:54:09;98469.94;;;4.71;97.41
41202;BME280;26936;50.524;8.684;2022-12-08T13:56:43;98477.78;;;4.60;99.55
41202;BME280;26936;50.524;8.684;2022-12-08T13:59:23;98484.56;;;4.75;100.00
41202;BME280;26936;50.524;8.684;2022-12-08T14:01:52;98478.03;;;4.65;100.00
41202;BME280;26936;50.524;8.684;2022-12-08T14:04:20;98479.34;;;4.61;100.00
41202;BME280;26936;50.524;8.684;2022-12-08T14:06:52;98481.84;;;4.55;100.00
41202;BME280;26936;50.524;8.684;2022-12-08T14:09:22;98483.09;;;4.54;100.00
41202;BME280;26936;50.524;8.684;2022-12-08T14:12:18;98475.94;;;4.53;100.00
41202;BME280;26936;50.524;8.684;2022-12-08T14:14:47;98478.38;;;4.51;100.00
41202;BME280;26936;50.524;8.684;2022-12-08T14:17:18;98488.81;;;4.47;100.00
41202;BME280;26936;50.524;8.684;2022-12-08T14:19:52;98491.34;;;4.42;100.00